sensor_id;sensor_type;location;lat;lon;timestamp;P1;durP1;ratioP1;P2;durP2;ratioP2
52432;SDS011;38352;53.244;6.594;2023-02-11T00:00:17;22.70;;;6.60;;
52432;SDS011;38352;53.244;6.594;2023-02-11T00:02:43;22.00;;;6.75;;
52432;SDS011;38352;53.244;6.594;2023-02-11T00:05:09;25.02;;;7.15;;
52432;SDS011;38352;53.244;6.594;2023-02-11T00:07:35;23.05;;;6.82;;
52432;SDS011;38352;53.244;6.594;2023-02-11T00:10:01;21.48;;;6.47;;
52432;SDS011;38352;53.244;6.594;2023-02-11T00:12:27;25.20;;;7.25;;
52432;SDS011;38352;53.244;6.594;2023-02-11T00:14:54;30.20;;;7.75;;
52432;SDS011;38352;53.244;6.594;2023-02-11T00:17:20;23.52;;;6.50;;
52432;SDS011;38352;53.244;6.594;2023-02-11T00:19:52;18.40;;;6.63;;
52432;SDS011;38352;53.244;6.594;2023-02-11T00:22:18;20.35;;;6.07;;
52432;SDS011;38352;53.244;6.594;2023-02-11T00:24:44;22.90;;;6.15;;
52432;SDS011;38352;53.244;6.594;2023-02-11T00:27:11;26.48;;;6.47;;
52432;SDS011;38352;53.244;6.594;2023-02-11T00:29:37;19.63;;;6.68;;
52432;SDS011;38352;53.244;6.594;2023-02-11T00:32:03;26.63;;;7.95;;
52432;SDS011;38352;53.244;6.594;2023-02-11T00:34:30;25.13;;;7.45;;
52432;SDS011;38352;53.244;6.594;2023-02-11T00:36:56;18.33;;;6.40;;
52432;SDS011;38352;53.244;6.594;2023-02-11T00:39:22;17.17;;;6.53;;
52432;SDS011;38352;53.244;6.594;2023-02-11T00:41:48;24.92;;;7.88;;
52432;SDS011;38352;53.244;6.594;2023-02-11T00:44:14;20.05;;;7.60;;
52432;SDS011;38352;53.244;6.594;2023-02-11T00:46:40;20.73;;;8.00;;
52432;SDS011;38352;53.244;6.594;2023-02-11T00:49:06;24.77;;;6.85;;
52432;SDS011;38352;53.244;6.594;2023-02-11T00:51:33;22.17;;;7.18;;
52432;SDS011;38352;53.244;6.594;2023-02-11T00:53:59;20.67;;;6.57;;
52432;SDS011;38352;53.244;6.594;2023-02-11T00:56:25;17.45;;;7.03;;
52432;SDS011;38352;53.244;6.594;2023-02-11T00:58:51;24.95;;;7.68;;
52432;SDS011;38352;53.244;6.594;2023-02-11T01:01:18;31.70;;;8.52;;
52432;SDS011;38352;53.244;6.594;2023-02-11T01:03:44;26.35;;;7.40;;
52432;SDS011;38352;53.244;6.594;2023-02-11T01:06:10;22.65;;;8.02;;
52432;SDS011;38352;53.244;6.594;2023-02-11T01:08:36;21.65;;;8.30;;
52432;SDS011;38352;53.244;6.594;2023-02-11T01:11:03;24.80;;;8.48;;
52432;SDS011;38352;53.244;6.594;2023-02-11T01:13:30;28.38;;;6.93;;
52432;SDS011;38352;53.244;6.594;2023-02-11T01:15:56;23.90;;;7.50;;
52432;SDS011;38352;53.244;6.594;2023-02-11T01:18:23;19.92;;;7.95;;
52432;SDS011;38352;53.244;6.594;2023-02-11T01:20:50;30.88;;;8.30;;
52432;SDS011;38352;53.244;6.594;2023-02-11T01:23:16;19.35;;;6.82;;
52432;SDS011;38352;53.244;6.594;2023-02-11T01:25:42;23.10;;;7.70;;
52432;SDS011;38352;53.244;6.594;2023-02-11T01:28:14;26.08;;;8.15;;
52432;SDS011;38352;53.244;6.594;2023-02-11T01:30:41;25.60;;;8.98;;
52432;SDS011;38352;53.244;6.594;2023-02-11T01:33:07;19.45;;;7.60;;
52432;SDS011;38352;53.244;6.594;2023-02-11T01:35:33;23.98;;;8.27;;
52432;SDS011;38352;53.244;6.594;2023-02-11T01:37:59;25.58;;;8.10;;
52432;SDS011;38352;53.244;6.594;2023-02-11T01:40:25;23.75;;;8.63;;
52432;SDS011;38352;53.244;6.594;2023-02-11T01:42:51;21.73;;;8.38;;
52432;SDS011;38352;53.244;6.594;2023-02-11T01:48:02;18.23;;;7.80;;
52432;SDS011;38352;53.244;6.594;2023-02-11T01:50:28;25.92;;;9.82;;
52432;SDS011;38352;53.244;6.594;2023-02-11T01:52:54;27.50;;;8.52;;
52432;SDS011;38352;53.244;6.594;2023-02-11T01:55:40;21.42;;;7.90;;
52432;SDS011;38352;53.244;6.594;2023-02-11T01:58:25;20.63;;;8.35;;
52432;SDS011;38352;53.244;6.594;2023-02-11T02:00:53;23.05;;;8.80;;
52432;SDS011;38352;53.244;6.594;2023-02-11T02:03:21;22.55;;;9.07;;
52432;SDS011;38352;53.244;6.594;2023-02-11T02:08:20;24.35;;;9.02;;
52432;SDS011;38352;53.244;6.594;2023-02-11T02:10:48;26.08;;;8.68;;
52432;SDS011;38352;53.244;6.594;2023-02-11T02:13:18;26.20;;;9.18;;
52432;SDS011;38352;53.244;6.594;2023-02-11T02:15:54;32.10;;;10.27;;
52432;SDS011;38352;53.244;6.594;2023-02-11T02:26:27;23.17;;;10.02;;
52432;SDS011;38352;53.244;6.594;2023-02-11T02:29:05;22.70;;;9.27;;
52432;SDS011;38352;53.244;6.594;2023-02-11T02:34:18;25.65;;;9.60;;
52432;SDS011;38352;53.244;6.594;2023-02-11T02:36:53;29.23;;;10.73;;
52432;SDS011;38352;53.244;6.594;2023-02-11T02:39:23;30.40;;;11.68;;
52432;SDS011;38352;53.244;6.594;2023-02-11T02:41:51;19.58;;;9.65;;
52432;SDS011;38352;53.244;6.594;2023-02-11T02:44:18;32.70;;;10.90;;
52432;SDS011;38352;53.244;6.594;2023-02-11T02:46:45;30.25;;;10.25;;
52432;SDS011;38352;53.244;6.594;2023-02-11T02:49:11;27.15;;;11.63;;
52432;SDS011;38352;53.244;6.594;2023-02-11T02:54:28;26.40;;;10.82;;
52432;SDS011;38352;53.244;6.594;2023-02-11T02:59:42;26.63;;;11.82;;
52432;SDS011;38352;53.244;6.594;2023-02-11T03:02:28;33.10;;;11.60;;
52432;SDS011;38352;53.244;6.594;2023-02-11T03:07:42;30.40;;;11.88;;
52432;SDS011;38352;53.244;6.594;2023-02-11T03:10:12;29.73;;;12.00;;
52432;SDS011;38352;53.244;6.594;2023-02-11T03:12:39;25.83;;;11.88;;
52432;SDS011;38352;53.244;6.594;2023-02-11T03:15:06;30.95;;;11.73;;
52432;SDS011;38352;53.244;6.594;2023-02-11T03:17:33;26.45;;;11.27;;
52432;SDS011;38352;53.244;6.594;2023-02-11T03:20:01;28.42;;;11.23;;
52432;SDS011;38352;53.244;6.594;2023-02-11T03:22:32;27.38;;;13.20;;
52432;SDS011;38352;53.244;6.594;2023-02-11T03:25:00;31.52;;;11.90;;
52432;SDS011;38352;53.244;6.594;2023-02-11T03:27:45;27.80;;;12.30;;
52432;SDS011;38352;53.244;6.594;2023-02-11T03:30:20;29.02;;;11.27;;
52432;SDS011;38352;53.244;6.594;2023-02-11T03:37:51;23.05;;;11.68;;
52432;SDS011;38352;53.244;6.594;2023-02-11T03:40:24;26.48;;;12.30;;
52432;SDS011;38352;53.244;6.594;2023-02-11T03:43:00;28.85;;;13.38;;
52432;SDS011;38352;53.244;6.594;2023-02-11T03:45:27;34.58;;;14.18;;
52432;SDS011;38352;53.244;6.594;2023-02-11T03:47:56;34.40;;;13.82;;
52432;SDS011;38352;53.244;6.594;2023-02-11T03:50:23;32.47;;;13.52;;
52432;SDS011;38352;53.244;6.594;2023-02-11T03:52:51;29.88;;;15.13;;
52432;SDS011;38352;53.244;6.594;2023-02-11T03:55:19;31.02;;;13.60;;
52432;SDS011;38352;53.244;6.594;2023-02-11T03:57:46;29.83;;;13.55;;
52432;SDS011;38352;53.244;6.594;2023-02-11T04:00:12;35.22;;;14.20;;
52432;SDS011;38352;53.244;6.594;2023-02-11T04:02:39;36.53;;;14.55;;
52432;SDS011;38352;53.244;6.594;2023-02-11T04:05:05;34.13;;;14.75;;
52432;SDS011;38352;53.244;6.594;2023-02-11T04:07:32;30.40;;;14.35;;
52432;SDS011;38352;53.244;6.594;2023-02-11T04:09:58;33.80;;;14.73;;
52432;SDS011;38352;53.244;6.594;2023-02-11T04:12:25;30.67;;;14.35;;
52432;SDS011;38352;53.244;6.594;2023-02-11T04:14:51;29.90;;;14.32;;
52432;SDS011;38352;53.244;6.594;2023-02-11T04:17:17;31.73;;;14.73;;
52432;SDS011;38352;53.244;6.594;2023-02-11T04:19:43;29.13;;;13.82;;
52432;SDS011;38352;53.244;6.594;2023-02-11T04:22:09;30.80;;;13.48;;
52432;SDS011;38352;53.244;6.594;2023-02-11T04:24:35;35.33;;;16.27;;
52432;SDS011;38352;53.244;6.594;2023-02-11T04:27:01;29.02;;;14.48;;
52432;SDS011;38352;53.244;6.594;2023-02-11T04:29:27;30.73;;;14.70;;
52432;SDS011;38352;53.244;6.594;2023-02-11T04:31:53;28.85;;;13.68;;
52432;SDS011;38352;53.244;6.594;2023-02-11T04:34:20;34.17;;;16.08;;
52432;SDS011;38352;53.244;6.594;2023-02-11T04:36:46;32.65;;;15.20;;
52432;SDS011;38352;53.244;6.594;2023-02-11T04:39:12;33.97;;;15.45;;
52432;SDS011;38352;53.244;6.594;2023-02-11T04:41:38;34.15;;;16.02;;
52432;SDS011;38352;53.244;6.594;2023-02-11T04:44:04;35.50;;;15.75;;
52432;SDS011;38352;53.244;6.594;2023-02-11T04:46:30;33.38;;;16.15;;
52432;SDS011;38352;53.244;6.594;2023-02-11T04:48:56;32.60;;;16.25;;
52432;SDS011;38352;53.244;6.594;2023-02-11T04:51:22;35.22;;;15.50;;
52432;SDS011;38352;53.244;6.594;2023-02-11T04:53:48;30.48;;;15.65;;
52432;SDS011;38352;53.244;6.594;2023-02-11T04:56:15;34.10;;;17.33;;
52432;SDS011;38352;53.244;6.594;2023-02-11T04:58:41;40.00;;;16.00;;
52432;SDS011;38352;53.244;6.594;2023-02-11T05:01:11;34.30;;;16.23;;
52432;SDS011;38352;53.244;6.594;2023-02-11T05:03:37;33.40;;;15.18;;
52432;SDS011;38352;53.244;6.594;2023-02-11T05:06:04;35.85;;;16.85;;
52432;SDS011;38352;53.244;6.594;2023-02-11T05:08:30;33.28;;;15.93;;
52432;SDS011;38352;53.244;6.594;2023-02-11T05:10:56;31.13;;;15.70;;
52432;SDS011;38352;53.244;6.594;2023-02-11T05:13:22;35.78;;;15.88;;
52432;SDS011;38352;53.244;6.594;2023-02-11T05:15:48;35.42;;;16.05;;
52432;SDS011;38352;53.244;6.594;2023-02-11T05:18:14;37.58;;;15.38;;
52432;SDS011;38352;53.244;6.594;2023-02-11T05:20:41;34.10;;;16.55;;
52432;SDS011;38352;53.244;6.594;2023-02-11T05:23:07;35.05;;;16.25;;
52432;SDS011;38352;53.244;6.594;2023-02-11T05:25:33;35.25;;;15.88;;
52432;SDS011;38352;53.244;6.594;2023-02-11T05:27:59;36.15;;;15.90;;
52432;SDS011;38352;53.244;6.594;2023-02-11T05:30:25;28.88;;;15.48;;
52432;SDS011;38352;53.244;6.594;2023-02-11T05:32:52;31.23;;;14.70;;
52432;SDS011;38352;53.244;6.594;2023-02-11T05:35:18;32.15;;;15.57;;
52432;SDS011;38352;53.244;6.594;2023-02-11T05:37:44;34.05;;;15.40;;
52432;SDS011;38352;53.244;6.594;2023-02-11T05:40:10;29.00;;;14.52;;
52432;SDS011;38352;53.244;6.594;2023-02-11T05:42:36;38.50;;;16.48;;
52432;SDS011;38352;53.244;6.594;2023-02-11T05:45:02;35.13;;;15.55;;
52432;SDS011;38352;53.244;6.594;2023-02-11T05:47:29;33.65;;;16.02;;
52432;SDS011;38352;53.244;6.594;2023-02-11T05:49:55;27.88;;;13.65;;
52432;SDS011;38352;53.244;6.594;2023-02-11T05:52:21;31.42;;;15.55;;
52432;SDS011;38352;53.244;6.594;2023-02-11T05:54:47;32.75;;;15.10;;
52432;SDS011;38352;53.244;6.594;2023-02-11T05:57:13;30.52;;;15.07;;
52432;SDS011;38352;53.244;6.594;2023-02-11T05:59:39;28.65;;;14.02;;
52432;SDS011;38352;53.244;6.594;2023-02-11T06:02:06;35.80;;;15.80;;
52432;SDS011;38352;53.244;6.594;2023-02-11T06:04:32;31.70;;;14.90;;
52432;SDS011;38352;53.244;6.594;2023-02-11T06:06:58;32.17;;;14.35;;
52432;SDS011;38352;53.244;6.594;2023-02-11T06:09:24;30.55;;;14.98;;
52432;SDS011;38352;53.244;6.594;2023-02-11T06:11:51;31.58;;;13.77;;
52432;SDS011;38352;53.244;6.594;2023-02-11T06:14:17;29.40;;;13.48;;
52432;SDS011;38352;53.244;6.594;2023-02-11T06:16:43;32.90;;;14.90;;
52432;SDS011;38352;53.244;6.594;2023-02-11T06:19:09;26.88;;;14.70;;
52432;SDS011;38352;53.244;6.594;2023-02-11T06:21:35;28.20;;;13.45;;
52432;SDS011;38352;53.244;6.594;2023-02-11T06:24:02;33.42;;;13.43;;
52432;SDS011;38352;53.244;6.594;2023-02-11T06:26:29;24.05;;;12.05;;
52432;SDS011;38352;53.244;6.594;2023-02-11T06:28:55;31.77;;;13.88;;
52432;SDS011;38352;53.244;6.594;2023-02-11T06:31:21;29.98;;;13.15;;
52432;SDS011;38352;53.244;6.594;2023-02-11T06:33:47;27.95;;;12.25;;
52432;SDS011;38352;53.244;6.594;2023-02-11T06:36:18;25.30;;;12.98;;
52432;SDS011;38352;53.244;6.594;2023-02-11T06:38:45;28.92;;;13.77;;
52432;SDS011;38352;53.244;6.594;2023-02-11T06:41:12;26.90;;;12.88;;
52432;SDS011;38352;53.244;6.594;2023-02-11T06:43:38;30.13;;;13.02;;
52432;SDS011;38352;53.244;6.594;2023-02-11T06:46:05;29.38;;;13.70;;
52432;SDS011;38352;53.244;6.594;2023-02-11T06:48:31;29.33;;;13.75;;
52432;SDS011;38352;53.244;6.594;2023-02-11T06:51:01;28.95;;;13.50;;
52432;SDS011;38352;53.244;6.594;2023-02-11T06:53:28;28.40;;;13.13;;
52432;SDS011;38352;53.244;6.594;2023-02-11T06:55:54;31.25;;;14.43;;
52432;SDS011;38352;53.244;6.594;2023-02-11T06:58:21;26.77;;;14.30;;
52432;SDS011;38352;53.244;6.594;2023-02-11T07:00:47;29.90;;;15.13;;
52432;SDS011;38352;53.244;6.594;2023-02-11T07:03:13;31.13;;;13.00;;
52432;SDS011;38352;53.244;6.594;2023-02-11T07:05:41;32.85;;;14.35;;
52432;SDS011;38352;53.244;6.594;2023-02-11T07:08:07;30.70;;;13.98;;
52432;SDS011;38352;53.244;6.594;2023-02-11T07:10:33;27.65;;;13.75;;
52432;SDS011;38352;53.244;6.594;2023-02-11T07:13:00;22.15;;;12.77;;
52432;SDS011;38352;53.244;6.594;2023-02-11T07:15:26;28.85;;;14.10;;
52432;SDS011;38352;53.244;6.594;2023-02-11T07:17:52;34.85;;;14.88;;
52432;SDS011;38352;53.244;6.594;2023-02-11T07:20:18;27.60;;;13.27;;
52432;SDS011;38352;53.244;6.594;2023-02-11T07:22:44;30.00;;;12.90;;
52432;SDS011;38352;53.244;6.594;2023-02-11T07:25:10;29.77;;;13.45;;
52432;SDS011;38352;53.244;6.594;2023-02-11T07:27:36;29.40;;;12.77;;
52432;SDS011;38352;53.244;6.594;2023-02-11T07:30:02;28.52;;;13.13;;
52432;SDS011;38352;53.244;6.594;2023-02-11T07:32:28;25.05;;;11.57;;
52432;SDS011;38352;53.244;6.594;2023-02-11T07:34:54;21.35;;;11.57;;
52432;SDS011;38352;53.244;6.594;2023-02-11T07:37:21;27.17;;;12.52;;
52432;SDS011;38352;53.244;6.594;2023-02-11T07:39:47;33.20;;;13.85;;
52432;SDS011;38352;53.244;6.594;2023-02-11T07:42:13;22.20;;;10.20;;
52432;SDS011;38352;53.244;6.594;2023-02-11T07:44:39;25.58;;;12.48;;
52432;SDS011;38352;53.244;6.594;2023-02-11T07:47:05;26.95;;;12.88;;
52432;SDS011;38352;53.244;6.594;2023-02-11T07:49:31;23.30;;;11.82;;
52432;SDS011;38352;53.244;6.594;2023-02-11T07:51:57;23.60;;;11.57;;
52432;SDS011;38352;53.244;6.594;2023-02-11T07:54:24;25.95;;;11.23;;
52432;SDS011;38352;53.244;6.594;2023-02-11T07:56:50;24.45;;;11.77;;
52432;SDS011;38352;53.244;6.594;2023-02-11T07:59:16;27.23;;;10.95;;
52432;SDS011;38352;53.244;6.594;2023-02-11T08:01:42;24.77;;;11.70;;
52432;SDS011;38352;53.244;6.594;2023-02-11T08:04:08;27.08;;;11.63;;
52432;SDS011;38352;53.244;6.594;2023-02-11T08:06:34;20.15;;;10.38;;
52432;SDS011;38352;53.244;6.594;2023-02-11T08:09:05;22.05;;;9.73;;
52432;SDS011;38352;53.244;6.594;2023-02-11T08:11:31;25.55;;;11.23;;
52432;SDS011;38352;53.244;6.594;2023-02-11T08:13:57;24.40;;;11.65;;
52432;SDS011;38352;53.244;6.594;2023-02-11T08:16:25;24.60;;;10.30;;
52432;SDS011;38352;53.244;6.594;2023-02-11T08:18:51;23.25;;;10.63;;
52432;SDS011;38352;53.244;6.594;2023-02-11T08:21:18;23.42;;;9.20;;
52432;SDS011;38352;53.244;6.594;2023-02-11T08:23:45;22.20;;;9.50;;
52432;SDS011;38352;53.244;6.594;2023-02-11T08:26:12;21.38;;;10.23;;
52432;SDS011;38352;53.244;6.594;2023-02-11T08:28:39;25.83;;;10.65;;
52432;SDS011;38352;53.244;6.594;2023-02-11T08:31:06;23.85;;;10.50;;
52432;SDS011;38352;53.244;6.594;2023-02-11T08:33:33;23.00;;;10.30;;
52432;SDS011;38352;53.244;6.594;2023-02-11T08:35:59;17.25;;;9.73;;
52432;SDS011;38352;53.244;6.594;2023-02-11T08:38:25;20.33;;;10.07;;
52432;SDS011;38352;53.244;6.594;2023-02-11T08:40:51;26.10;;;9.45;;
52432;SDS011;38352;53.244;6.594;2023-02-11T08:43:17;24.50;;;9.52;;
52432;SDS011;38352;53.244;6.594;2023-02-11T08:45:43;25.17;;;10.27;;
52432;SDS011;38352;53.244;6.594;2023-02-11T08:48:09;25.27;;;9.85;;
52432;SDS011;38352;53.244;6.594;2023-02-11T08:50:37;20.85;;;9.10;;
52432;SDS011;38352;53.244;6.594;2023-02-11T08:53:03;21.73;;;10.40;;
52432;SDS011;38352;53.244;6.594;2023-02-11T08:55:30;25.05;;;10.70;;
52432;SDS011;38352;53.244;6.594;2023-02-11T08:57:56;19.92;;;10.10;;
52432;SDS011;38352;53.244;6.594;2023-02-11T09:00:23;21.90;;;9.20;;
52432;SDS011;38352;53.244;6.594;2023-02-11T09:02:49;18.20;;;8.25;;
52432;SDS011;38352;53.244;6.594;2023-02-11T09:05:15;15.98;;;8.55;;
52432;SDS011;38352;53.244;6.594;2023-02-11T09:07:41;22.13;;;9.65;;
52432;SDS011;38352;53.244;6.594;2023-02-11T09:10:07;19.85;;;9.13;;
52432;SDS011;38352;53.244;6.594;2023-02-11T09:12:33;23.75;;;9.90;;
52432;SDS011;38352;53.244;6.594;2023-02-11T09:14:59;22.98;;;9.32;;
52432;SDS011;38352;53.244;6.594;2023-02-11T09:17:25;19.50;;;9.20;;
52432;SDS011;38352;53.244;6.594;2023-02-11T09:19:51;22.25;;;8.85;;
52432;SDS011;38352;53.244;6.594;2023-02-11T09:22:18;19.80;;;10.43;;
52432;SDS011;38352;53.244;6.594;2023-02-11T09:24:44;20.50;;;9.02;;
52432;SDS011;38352;53.244;6.594;2023-02-11T09:27:10;17.73;;;8.07;;
52432;SDS011;38352;53.244;6.594;2023-02-11T09:29:36;18.98;;;8.57;;
52432;SDS011;38352;53.244;6.594;2023-02-11T09:32:02;20.48;;;8.85;;
52432;SDS011;38352;53.244;6.594;2023-02-11T09:34:28;20.92;;;8.50;;
52432;SDS011;38352;53.244;6.594;2023-02-11T09:36:54;20.20;;;8.20;;
52432;SDS011;38352;53.244;6.594;2023-02-11T09:39:20;21.55;;;8.52;;
52432;SDS011;38352;53.244;6.594;2023-02-11T09:44:20;19.48;;;7.25;;
52432;SDS011;38352;53.244;6.594;2023-02-11T09:46:50;18.67;;;8.10;;
52432;SDS011;38352;53.244;6.594;2023-02-11T09:49:19;22.52;;;8.00;;
52432;SDS011;38352;53.244;6.594;2023-02-11T09:51:47;22.08;;;8.73;;
52432;SDS011;38352;53.244;6.594;2023-02-11T09:54:26;16.50;;;8.80;;
52432;SDS011;38352;53.244;6.594;2023-02-11T09:56:53;21.40;;;7.97;;
52432;SDS011;38352;53.244;6.594;2023-02-11T09:59:19;17.27;;;8.10;;
52432;SDS011;38352;53.244;6.594;2023-02-11T10:06:44;17.65;;;7.95;;
52432;SDS011;38352;53.244;6.594;2023-02-11T10:09:29;20.15;;;7.28;;
52432;SDS011;38352;53.244;6.594;2023-02-11T10:24:32;16.48;;;7.32;;
52432;SDS011;38352;53.244;6.594;2023-02-11T10:26:59;15.15;;;7.15;;
52432;SDS011;38352;53.244;6.594;2023-02-11T10:29:30;14.35;;;6.10;;
52432;SDS011;38352;53.244;6.594;2023-02-11T10:31:58;15.35;;;6.60;;
52432;SDS011;38352;53.244;6.594;2023-02-11T10:34:25;17.08;;;6.82;;
52432;SDS011;38352;53.244;6.594;2023-02-11T10:36:51;20.55;;;8.18;;
52432;SDS011;38352;53.244;6.594;2023-02-11T10:39:21;17.70;;;6.28;;
52432;SDS011;38352;53.244;6.594;2023-02-11T10:42:04;18.02;;;6.72;;
52432;SDS011;38352;53.244;6.594;2023-02-11T10:44:32;16.73;;;6.22;;
52432;SDS011;38352;53.244;6.594;2023-02-11T10:47:01;13.50;;;6.10;;
52432;SDS011;38352;53.244;6.594;2023-02-11T10:49:36;15.70;;;5.80;;
52432;SDS011;38352;53.244;6.594;2023-02-11T10:52:17;16.67;;;6.75;;
52432;SDS011;38352;53.244;6.594;2023-02-11T10:55:04;17.08;;;6.57;;
52432;SDS011;38352;53.244;6.594;2023-02-11T10:59:58;15.35;;;4.53;;
52432;SDS011;38352;53.244;6.594;2023-02-11T11:02:29;14.60;;;4.75;;
52432;SDS011;38352;53.244;6.594;2023-02-11T11:04:59;13.18;;;4.47;;
52432;SDS011;38352;53.244;6.594;2023-02-11T11:07:27;13.43;;;4.40;;
52432;SDS011;38352;53.244;6.594;2023-02-11T11:09:57;17.58;;;5.43;;
52432;SDS011;38352;53.244;6.594;2023-02-11T11:12:31;11.80;;;4.25;;
52432;SDS011;38352;53.244;6.594;2023-02-11T11:15:41;12.85;;;5.30;;
52432;SDS011;38352;53.244;6.594;2023-02-11T11:18:08;20.35;;;4.80;;
52432;SDS011;38352;53.244;6.594;2023-02-11T11:20:34;13.27;;;4.90;;
52432;SDS011;38352;53.244;6.594;2023-02-11T11:23:16;12.75;;;5.68;;
52432;SDS011;38352;53.244;6.594;2023-02-11T11:25:44;12.30;;;4.47;;
52432;SDS011;38352;53.244;6.594;2023-02-11T11:28:17;14.18;;;4.93;;
52432;SDS011;38352;53.244;6.594;2023-02-11T11:30:44;18.02;;;4.40;;
52432;SDS011;38352;53.244;6.594;2023-02-11T11:33:19;19.13;;;4.97;;
52432;SDS011;38352;53.244;6.594;2023-02-11T11:38:54;14.45;;;3.92;;
52432;SDS011;38352;53.244;6.594;2023-02-11T11:41:31;15.68;;;4.30;;
52432;SDS011;38352;53.244;6.594;2023-02-11T11:44:02;18.42;;;4.72;;
52432;SDS011;38352;53.244;6.594;2023-02-11T11:46:30;13.65;;;4.10;;
52432;SDS011;38352;53.244;6.594;2023-02-11T11:49:02;17.38;;;4.35;;
52432;SDS011;38352;53.244;6.594;2023-02-11T11:51:32;15.27;;;4.63;;
52432;SDS011;38352;53.244;6.594;2023-02-11T11:54:10;12.90;;;4.32;;
52432;SDS011;38352;53.244;6.594;2023-02-11T11:56:39;14.55;;;3.63;;
52432;SDS011;38352;53.244;6.594;2023-02-11T11:59:10;15.93;;;3.67;;
52432;SDS011;38352;53.244;6.594;2023-02-11T12:01:58;16.50;;;5.38;;
52432;SDS011;38352;53.244;6.594;2023-02-11T12:09:51;9.80;;;3.80;;
52432;SDS011;38352;53.244;6.594;2023-02-11T12:19:59;13.55;;;3.60;;
52432;SDS011;38352;53.244;6.594;2023-02-11T12:25:02;15.10;;;3.58;;
52432;SDS011;38352;53.244;6.594;2023-02-11T12:27:38;9.73;;;3.22;;
52432;SDS011;38352;53.244;6.594;2023-02-11T12:43:34;13.85;;;3.38;;
52432;SDS011;38352;53.244;6.594;2023-02-11T12:54:07;13.07;;;3.67;;
52432;SDS011;38352;53.244;6.594;2023-02-11T12:59:06;12.05;;;3.50;;
52432;SDS011;38352;53.244;6.594;2023-02-11T13:01:35;15.45;;;3.65;;
52432;SDS011;38352;53.244;6.594;2023-02-11T13:06:34;10.07;;;3.10;;
52432;SDS011;38352;53.244;6.594;2023-02-11T13:09:02;17.50;;;3.80;;
52432;SDS011;38352;53.244;6.594;2023-02-11T13:11:32;19.73;;;3.17;;
52432;SDS011;38352;53.244;6.594;2023-02-11T13:14:05;14.10;;;3.40;;
52432;SDS011;38352;53.244;6.594;2023-02-11T13:16:37;13.95;;;3.47;;
52432;SDS011;38352;53.244;6.594;2023-02-11T13:32:08;9.68;;;4.25;;
52432;SDS011;38352;53.244;6.594;2023-02-11T13:37:22;13.95;;;4.45;;
52432;SDS011;38352;53.244;6.594;2023-02-11T13:42:16;11.15;;;3.65;;
52432;SDS011;38352;53.244;6.594;2023-02-11T13:44:43;18.77;;;4.10;;
52432;SDS011;38352;53.244;6.594;2023-02-11T13:47:11;10.38;;;3.10;;
52432;SDS011;38352;53.244;6.594;2023-02-11T13:49:48;15.40;;;3.53;;
52432;SDS011;38352;53.244;6.594;2023-02-11T13:54:47;15.48;;;3.92;;
52432;SDS011;38352;53.244;6.594;2023-02-11T14:10:50;12.10;;;3.25;;
52432;SDS011;38352;53.244;6.594;2023-02-11T14:16:11;11.70;;;3.10;;
52432;SDS011;38352;53.244;6.594;2023-02-11T14:31:25;18.30;;;3.70;;
52432;SDS011;38352;53.244;6.594;2023-02-11T14:36:26;14.20;;;3.67;;
52432;SDS011;38352;53.244;6.594;2023-02-11T14:41:37;13.82;;;3.22;;
52432;SDS011;38352;53.244;6.594;2023-02-11T14:44:05;17.48;;;3.60;;
52432;SDS011;38352;53.244;6.594;2023-02-11T14:46:33;19.90;;;4.20;;
52432;SDS011;38352;53.244;6.594;2023-02-11T14:48:59;10.70;;;3.70;;
52432;SDS011;38352;53.244;6.594;2023-02-11T14:53:53;12.98;;;3.63;;
52432;SDS011;38352;53.244;6.594;2023-02-11T14:56:22;15.98;;;3.70;;
52432;SDS011;38352;53.244;6.594;2023-02-11T14:58:50;11.95;;;3.33;;
52432;SDS011;38352;53.244;6.594;2023-02-11T15:03:47;15.30;;;3.72;;
52432;SDS011;38352;53.244;6.594;2023-02-11T15:06:20;13.68;;;3.55;;
52432;SDS011;38352;53.244;6.594;2023-02-11T15:08:48;16.63;;;4.43;;
52432;SDS011;38352;53.244;6.594;2023-02-11T15:11:16;18.83;;;5.50;;
52432;SDS011;38352;53.244;6.594;2023-02-11T15:13:42;18.63;;;3.85;;
52432;SDS011;38352;53.244;6.594;2023-02-11T15:16:12;14.13;;;2.92;;
52432;SDS011;38352;53.244;6.594;2023-02-11T15:18:43;13.75;;;3.85;;
52432;SDS011;38352;53.244;6.594;2023-02-11T15:21:10;16.00;;;4.60;;
52432;SDS011;38352;53.244;6.594;2023-02-11T15:23:36;12.43;;;3.88;;
52432;SDS011;38352;53.244;6.594;2023-02-11T15:26:11;15.02;;;3.55;;
52432;SDS011;38352;53.244;6.594;2023-02-11T15:28:37;15.25;;;3.85;;
52432;SDS011;38352;53.244;6.594;2023-02-11T15:31:13;10.55;;;3.08;;
52432;SDS011;38352;53.244;6.594;2023-02-11T15:33:39;16.23;;;3.75;;
52432;SDS011;38352;53.244;6.594;2023-02-11T15:36:06;9.68;;;2.95;;
52432;SDS011;38352;53.244;6.594;2023-02-11T15:38:32;17.65;;;3.72;;
52432;SDS011;38352;53.244;6.594;2023-02-11T15:41:00;16.83;;;3.95;;
52432;SDS011;38352;53.244;6.594;2023-02-11T15:46:07;18.15;;;3.75;;
52432;SDS011;38352;53.244;6.594;2023-02-11T15:48:45;14.90;;;3.88;;
52432;SDS011;38352;53.244;6.594;2023-02-11T15:51:22;15.57;;;3.80;;
52432;SDS011;38352;53.244;6.594;2023-02-11T15:53:57;14.68;;;3.65;;
52432;SDS011;38352;53.244;6.594;2023-02-11T15:56:30;18.58;;;3.95;;
52432;SDS011;38352;53.244;6.594;2023-02-11T15:59:47;13.98;;;4.32;;
52432;SDS011;38352;53.244;6.594;2023-02-11T16:01:50;16.38;;;4.00;;
52432;SDS011;38352;53.244;6.594;2023-02-11T16:04:17;16.27;;;3.50;;
52432;SDS011;38352;53.244;6.594;2023-02-11T16:06:44;11.95;;;3.47;;
52432;SDS011;38352;53.244;6.594;2023-02-11T16:16:55;11.95;;;3.65;;
52432;SDS011;38352;53.244;6.594;2023-02-11T16:19:22;18.17;;;4.55;;
52432;SDS011;38352;53.244;6.594;2023-02-11T16:21:49;16.67;;;3.50;;
52432;SDS011;38352;53.244;6.594;2023-02-11T16:24:19;14.35;;;4.15;;
52432;SDS011;38352;53.244;6.594;2023-02-11T16:26:47;16.17;;;3.85;;
52432;SDS011;38352;53.244;6.594;2023-02-11T16:29:15;13.65;;;3.58;;
52432;SDS011;38352;53.244;6.594;2023-02-11T16:31:42;11.48;;;3.75;;
52432;SDS011;38352;53.244;6.594;2023-02-11T16:34:13;12.57;;;4.13;;
52432;SDS011;38352;53.244;6.594;2023-02-11T16:36:39;18.25;;;4.13;;
52432;SDS011;38352;53.244;6.594;2023-02-11T16:39:05;21.83;;;3.95;;
52432;SDS011;38352;53.244;6.594;2023-02-11T16:41:31;11.75;;;3.45;;
52432;SDS011;38352;53.244;6.594;2023-02-11T16:43:57;15.02;;;3.67;;
52432;SDS011;38352;53.244;6.594;2023-02-11T16:46:24;14.60;;;3.65;;
52432;SDS011;38352;53.244;6.594;2023-02-11T16:48:51;16.98;;;4.10;;
52432;SDS011;38352;53.244;6.594;2023-02-11T16:51:17;14.38;;;3.70;;
52432;SDS011;38352;53.244;6.594;2023-02-11T16:53:43;14.55;;;4.00;;
52432;SDS011;38352;53.244;6.594;2023-02-11T16:56:13;17.17;;;4.05;;
52432;SDS011;38352;53.244;6.594;2023-02-11T16:58:41;14.38;;;3.65;;
52432;SDS011;38352;53.244;6.594;2023-02-11T17:01:07;15.88;;;3.63;;
52432;SDS011;38352;53.244;6.594;2023-02-11T17:03:33;14.75;;;3.75;;
52432;SDS011;38352;53.244;6.594;2023-02-11T17:06:04;17.75;;;4.15;;
52432;SDS011;38352;53.244;6.594;2023-02-11T17:08:31;15.55;;;4.15;;
52432;SDS011;38352;53.244;6.594;2023-02-11T17:10:57;13.40;;;4.75;;
52432;SDS011;38352;53.244;6.594;2023-02-11T17:13:23;16.67;;;4.53;;
52432;SDS011;38352;53.244;6.594;2023-02-11T17:15:49;15.65;;;3.90;;
52432;SDS011;38352;53.244;6.594;2023-02-11T17:18:15;20.73;;;4.22;;
52432;SDS011;38352;53.244;6.594;2023-02-11T17:20:41;17.40;;;4.63;;